Time;durP1;ratioP1;P1;durP2;ratioP2;P2;SDS_P1;SDS_P2;PMS_P1;PMS_P2;Temp;Humidity;BMP_temperature;BMP_pressure;BME280_temperature;BME280_humidity;BME280_pressure;Samples;Min_cycle;Max_cycle;Signal;HPM_P1;HPM_P2
2022/04/21 00:00:45;;;;;;;;;;;;;;;19.55;47.42;100647.28;5073223;28;19920;-74
2022/04/21 00:03:13;;;;;;;;;;;;;;;19.55;47.42;100641.91;5072937;28;19920;-74
2022/04/21 00:05:41;;;;;;;;;;;;;;;19.54;47.40;100640.22;5073418;28;19928;-74
2022/04/21 00:08:08;;;;;;;;;;;;;;;19.53;47.45;100625.09;5073181;28;19920;-74
2022/04/21 00:10:35;;;;;;;;;;;;;;;19.54;47.39;100637.53;5073384;28;19943;-74
2022/04/21 00:13:03;;;;;;;;;;;;;;;19.54;47.40;100640.22;5073243;28;19920;-74
2022/04/21 00:15:30;;;;;;;;;;;;;;;19.54;47.32;100645.56;5073666;28;20283;-74
2022/04/21 00:17:58;;;;;;;;;;;;;;;19.54;47.48;100642.91;5072948;28;19921;-75
2022/04/21 00:20:26;;;;;;;;;;;;;;;19.53;47.37;100641.19;5073651;28;19928;-75
2022/04/21 00:25:38;;;;;;;;;;;;;;;19.53;47.33;100627.78;5077514;28;19927;-74
2022/04/21 00:28:06;;;;;;;;;;;;;;;19.52;47.31;100626.91;5077282;28;19943;-74
2022/04/21 00:30:33;;;;;;;;;;;;;;;19.51;47.31;100635.94;5076668;28;19920;-74
2022/04/21 00:33:00;;;;;;;;;;;;;;;19.51;47.33;100627.91;5077595;28;20251;-74
2022/04/21 00:35:27;;;;;;;;;;;;;;;19.51;47.25;100635.09;5077549;28;19920;-74
2022/04/21 00:37:56;;;;;;;;;;;;;;;19.51;47.30;100627.91;5076975;28;19925;-75
2022/04/21 00:40:26;;;;;;;;;;;;;;;19.50;47.26;100626.22;5076932;28;20368;-74
2022/04/21 00:42:54;;;;;;;;;;;;;;;19.50;47.38;100623.53;5077431;28;19921;-74
2022/04/21 00:45:22;;;;;;;;;;;;;;;19.51;47.29;100621.69;5076476;28;19921;-75
2022/04/21 00:47:50;;;;;;;;;;;;;;;19.50;47.08;100618.16;5076641;28;19921;-74
2022/04/21 00:50:23;;;;;;;;;;;;;;;19.50;47.23;100618.16;5076594;28;20436;-75
2022/04/21 00:52:52;;;;;;;;;;;;;;;19.51;47.24;100616.31;5077176;28;20398;-74
2022/04/21 00:55:20;;;;;;;;;;;;;;;19.50;47.14;100614.63;5076999;28;20364;-74
2022/04/21 00:57:48;;;;;;;;;;;;;;;19.50;47.31;100617.31;5077089;28;19925;-74
2022/04/21 01:00:16;;;;;;;;;;;;;;;19.49;47.12;100610.25;5076195;28;19931;-74
2022/04/21 01:02:49;;;;;;;;;;;;;;;19.50;47.27;100611.94;5076321;28;20363;-74
2022/04/21 01:05:17;;;;;;;;;;;;;;;19.48;47.20;100606.69;5075020;28;19920;-74
2022/04/21 01:07:45;;;;;;;;;;;;;;;19.49;47.09;100605.72;5077147;28;19939;-74
2022/04/21 01:10:12;;;;;;;;;;;;;;;19.49;47.25;100608.41;5076613;28;19928;-74
2022/04/21 01:12:41;;;;;;;;;;;;;;;19.49;47.20;100610.25;5076047;28;19935;-74
2022/04/21 01:15:09;;;;;;;;;;;;;;;19.48;47.23;100601.31;5076012;28;19928;-74
2022/04/21 01:17:37;;;;;;;;;;;;;;;19.49;47.24;100596.81;5076674;28;19927;-74
2022/04/21 01:20:05;;;;;;;;;;;;;;;19.49;47.31;100599.50;5076395;28;19973;-75
2022/04/21 01:22:32;;;;;;;;;;;;;;;19.48;47.26;100595.94;5076435;28;19928;-74
2022/04/21 01:24:59;;;;;;;;;;;;;;;19.49;47.25;100594.13;5075922;28;19943;-74
2022/04/21 01:27:31;;;;;;;;;;;;;;;19.48;47.29;100585.22;5075816;28;20313;-74
2022/04/21 01:29:58;;;;;;;;;;;;;;;19.48;47.18;100581.69;5075619;28;19920;-74
2022/04/21 01:32:25;;;;;;;;;;;;;;;19.48;47.29;100577.16;5076233;28;20261;-74
2022/04/21 01:34:52;;;;;;;;;;;;;;;19.48;47.13;100579.00;5075612;28;19920;-74
2022/04/21 01:42:51;;;;;;;;;;;;;;;19.48;47.42;100576.31;5074961;28;19939;-74
2022/04/21 01:45:18;;;;;;;;;;;;;;;19.48;47.41;100570.94;5075613;28;19987;-74
2022/04/21 01:47:45;;;;;;;;;;;;;;;19.47;47.43;100575.47;5074270;28;19947;-73
2022/04/21 01:50:12;;;;;;;;;;;;;;;19.47;47.43;100563.88;5075911;28;19920;-74
2022/04/21 01:52:39;;;;;;;;;;;;;;;19.47;47.50;100578.16;5075960;28;19920;-74
2022/04/21 01:55:06;;;;;;;;;;;;;;;19.48;47.46;100584.38;5075295;28;19921;-74
2022/04/21 01:57:34;;;;;;;;;;;;;;;19.47;47.50;100580.00;5075145;28;20296;-74
2022/04/21 02:00:01;;;;;;;;;;;;;;;19.47;47.43;100583.50;5075775;28;20356;-74
2022/04/21 02:02:30;;;;;;;;;;;;;;;19.46;47.39;100584.50;5075118;28;19972;-74
2022/04/21 02:04:57;;;;;;;;;;;;;;;19.47;47.45;100580.00;5075102;28;19920;-74
2022/04/21 02:07:25;;;;;;;;;;;;;;;19.46;47.52;100578.31;5075825;28;19927;-74
2022/04/21 02:09:52;;;;;;;;;;;;;;;19.45;47.46;100580.13;5074577;28;19920;-74
2022/04/21 02:12:21;;;;;;;;;;;;;;;19.46;47.46;100578.31;5075039;28;20375;-74
2022/04/21 02:14:48;;;;;;;;;;;;;;;19.46;47.52;100573.78;5075547;28;19920;-74
2022/04/21 02:17:15;;;;;;;;;;;;;;;19.45;47.52;100572.09;5075003;28;20399;-74
2022/04/21 02:19:42;;;;;;;;;;;;;;;19.45;47.50;100573.94;5074974;28;19927;-74
2022/04/21 02:22:09;;;;;;;;;;;;;;;19.45;47.58;100572.09;5075298;28;19927;-74
2022/04/21 02:24:36;;;;;;;;;;;;;;;19.44;47.58;100575.72;5074711;28;19927;-74
2022/04/21 02:27:03;;;;;;;;;;;;;;;19.44;47.59;100574.88;5074546;28;20287;-74
2022/04/21 02:29:31;;;;;;;;;;;;;;;19.45;47.63;100574.78;5074290;28;19927;-74
2022/04/21 02:32:01;;;;;;;;;;;;;;;19.45;47.54;100568.56;5075257;28;20255;-74
2022/04/21 02:34:29;;;;;;;;;;;;;;;19.45;47.66;100573.94;5075617;28;19928;-74
2022/04/21 02:36:56;;;;;;;;;;;;;;;19.44;47.60;100566.84;5074468;28;19924;-74
2022/04/21 02:39:24;;;;;;;;;;;;;;;19.43;47.64;100566.00;5074380;28;20390;-74
2022/04/21 02:41:51;;;;;;;;;;;;;;;19.44;47.64;100565.00;5073244;28;19927;-74
2022/04/21 02:44:18;;;;;;;;;;;;;;;19.44;47.54;100567.69;5074864;28;19920;-74
2022/04/21 02:46:45;;;;;;;;;;;;;;;19.44;47.55;100561.47;5073742;28;19924;-74
2022/04/21 02:49:14;;;;;;;;;;;;;;;19.44;47.59;100556.09;5073062;28;19925;-74
2022/04/21 02:51:42;;;;;;;;;;;;;;;19.43;47.72;100557.09;5074129;28;19920;-74
2022/04/21 02:59:41;;;;;;;;;;;;;;;19.44;47.65;100558.78;5074321;28;19953;-75
2022/04/21 03:02:08;;;;;;;;;;;;;;;19.43;47.46;100560.63;5073977;28;19928;-74
2022/04/21 03:04:35;;;;;;;;;;;;;;;19.43;47.71;100563.31;5074719;28;19927;-75
2022/04/21 03:07:02;;;;;;;;;;;;;;;19.43;47.67;100563.31;5073893;28;19935;-75
2022/04/21 03:09:30;;;;;;;;;;;;;;;19.43;47.74;100559.78;5074124;28;19921;-74
2022/04/21 03:12:02;;;;;;;;;;;;;;;19.42;47.70;100558.94;5072531;28;19920;-76
2022/04/21 03:14:29;;;;;;;;;;;;;;;19.43;47.89;100557.94;5074300;28;19927;-75
2022/04/21 03:17:01;;;;;;;;;;;;;;;19.43;47.93;100551.72;5074335;28;19928;-74
2022/04/21 03:19:28;;;;;;;;;;;;;;;19.43;47.80;100557.09;5074004;28;19920;-74
2022/04/21 03:24:41;;;;;;;;;;;;;;;19.42;47.90;100550.88;5073889;28;19920;-74
2022/04/21 03:27:08;;;;;;;;;;;;;;;19.42;47.80;100542.81;5073622;28;19927;-74
2022/04/21 03:29:37;;;;;;;;;;;;;;;19.43;47.86;100540.97;5074612;28;19921;-74
2022/04/21 03:32:09;;;;;;;;;;;;;;;19.42;47.88;100542.81;5073571;28;20295;-74
2022/04/21 03:34:40;;;;;;;;;;;;;;;19.43;47.84;100543.66;5074022;28;20380;-74
2022/04/21 03:37:13;;;;;;;;;;;;;;;19.42;47.88;100533.94;5072219;28;20331;-74
2022/04/21 03:39:41;;;;;;;;;;;;;;;19.42;47.87;100536.63;5073761;28;19921;-74
2022/04/21 03:42:26;;;;;;;;;;;;;;;19.42;47.83;100528.56;5073463;28;19927;-74
2022/04/21 03:44:54;;;;;;;;;;;;;;;19.42;47.93;100517.81;5073431;28;19921;-74
2022/04/21 03:47:21;;;;;;;;;;;;;;;19.41;47.84;100524.19;5073582;28;20372;-74
2022/04/21 03:49:49;;;;;;;;;;;;;;;19.41;47.73;100516.97;5073641;28;19921;-74
2022/04/21 03:52:19;;;;;;;;;;;;;;;19.41;47.84;100526.88;5072069;28;19931;-74
2022/04/21 03:54:46;;;;;;;;;;;;;;;19.41;47.87;100516.13;5073241;28;19920;-74
2022/04/21 03:57:13;;;;;;;;;;;;;;;19.42;47.82;100523.19;5074165;28;19928;-74
2022/04/21 03:59:40;;;;;;;;;;;;;;;19.40;47.71;100517.94;5077382;28;19920;-74
2022/04/21 04:02:08;;;;;;;;;;;;;;;19.40;47.82;100520.63;5077514;28;19921;-74
2022/04/21 04:04:36;;;;;;;;;;;;;;;19.40;47.89;100517.09;5077639;28;19921;-74
2022/04/21 04:12:36;;;;;;;;;;;;;;;19.40;47.78;100503.69;5077812;28;19921;-74
2022/04/21 04:15:04;;;;;;;;;;;;;;;19.39;48.00;100502.00;5077151;28;20291;-74
2022/04/21 04:17:32;;;;;;;;;;;;;;;19.40;47.73;100511.72;5077699;28;19927;-74
2022/04/21 04:19:59;;;;;;;;;;;;;;;19.39;47.66;100502.81;5077574;28;19920;-74
2022/04/21 04:22:26;;;;;;;;;;;;;;;19.40;47.86;100511.72;5077177;28;19942;-74
2022/04/21 04:24:55;;;;;;;;;;;;;;;19.39;47.90;100507.34;5075931;28;19958;-74
2022/04/21 04:27:23;;;;;;;;;;;;;;;19.38;47.79;100502.97;5077483;28;20368;-74
2022/04/21 04:29:50;;;;;;;;;;;;;;;19.39;47.83;100512.72;5075743;28;20398;-74
2022/04/21 04:32:17;;;;;;;;;;;;;;;19.39;47.88;100510.03;5076703;28;19931;-74
2022/04/21 04:34:45;;;;;;;;;;;;;;;19.37;47.89;100512.88;5076999;28;19927;-74
2022/04/21 04:37:12;;;;;;;;;;;;;;;19.38;47.85;100514.56;5077238;28;19928;-74
2022/04/21 04:39:39;;;;;;;;;;;;;;;19.38;47.89;100517.25;5077008;28;19935;-74
2022/04/21 04:42:28;;;;;;;;;;;;;;;19.37;47.79;100504.81;5075459;28;19927;-74
2022/04/21 04:47:40;;;;;;;;;;;;;;;19.37;47.58;100504.81;5076701;28;19935;-74
2022/04/21 04:50:08;;;;;;;;;;;;;;;19.37;47.78;100506.66;5076691;28;19924;-74
2022/04/21 04:52:35;;;;;;;;;;;;;;;19.37;47.82;100509.34;5076380;28;19928;-75
2022/04/21 04:55:02;;;;;;;;;;;;;;;19.37;47.91;100501.28;5077216;28;19927;-74
2022/04/21 04:57:29;;;;;;;;;;;;;;;19.37;47.89;100504.81;5076320;28;20264;-74
2022/04/21 05:00:04;;;;;;;;;;;;;;;19.37;47.81;100507.50;5076803;28;19920;-74
2022/04/21 05:02:31;;;;;;;;;;;;;;;19.37;48.03;100503.97;5076491;28;19921;-74
2022/04/21 05:04:59;;;;;;;;;;;;;;;19.36;47.97;100511.16;5076256;28;19920;-74
2022/04/21 05:07:26;;;;;;;;;;;;;;;19.36;48.07;100513.84;5076074;28;19920;-74
2022/04/21 05:09:53;;;;;;;;;;;;;;;19.36;47.94;100524.56;5075662;28;19927;-74
2022/04/21 05:12:21;;;;;;;;;;;;;;;19.36;48.03;100526.41;5076355;28;19928;-74
2022/04/21 05:14:52;;;;;;;;;;;;;;;19.36;47.94;100531.78;5075070;28;19927;-74
2022/04/21 05:17:19;;;;;;;;;;;;;;;19.36;47.90;100529.09;5077328;28;19920;-75
2022/04/21 05:20:04;;;;;;;;;;;;;;;19.36;47.90;100539.84;5076486;28;19927;-74
2022/04/21 05:22:37;;;;;;;;;;;;;;;19.35;47.83;100538.16;5075762;28;19927;-74
2022/04/21 05:25:08;;;;;;;;;;;;;;;19.35;48.09;100538.16;5076522;28;19920;-73
2022/04/21 05:27:37;;;;;;;;;;;;;;;19.34;48.08;100537.31;5076539;28;19921;-73
2022/04/21 05:32:51;;;;;;;;;;;;;;;19.35;48.09;100533.63;5075926;28;20298;-74
2022/04/21 05:35:19;;;;;;;;;;;;;;;19.34;48.11;100537.31;5075545;28;19920;-74
2022/04/21 05:37:46;;;;;;;;;;;;;;;19.34;48.14;100531.94;5075632;28;19928;-73
2022/04/21 05:40:13;;;;;;;;;;;;;;;19.34;48.04;100525.72;5075610;28;19920;-74
2022/04/21 05:42:45;;;;;;;;;;;;;;;19.34;48.11;100525.72;5075949;28;20379;-74
2022/04/21 05:45:12;;;;;;;;;;;;;;;19.34;47.89;100528.41;5077067;28;19920;-74
2022/04/21 05:47:40;;;;;;;;;;;;;;;19.34;48.06;100521.19;5075022;28;19928;-74
2022/04/21 05:50:07;;;;;;;;;;;;;;;19.34;48.14;100515.00;5075587;28;19920;-73
2022/04/21 05:52:37;;;;;;;;;;;;;;;19.32;48.05;100515.09;5075558;28;20295;-74
2022/04/21 05:55:05;;;;;;;;;;;;;;;19.32;47.99;100512.41;5076498;28;19927;-74
2022/04/21 05:57:38;;;;;;;;;;;;;;;19.32;48.10;100500.84;5075512;28;19920;-74
2022/04/21 06:00:05;;;;;;;;;;;;;;;19.33;48.17;100505.25;5076576;28;19921;-74
2022/04/21 06:02:38;;;;;;;;;;;;;;;19.32;47.96;100496.31;5080982;28;19921;-74
2022/04/21 06:05:05;;;;;;;;;;;;;;;19.32;47.99;100500.84;5076242;28;19927;-73
2022/04/21 06:07:32;;;;;;;;;;;;;;;19.32;48.18;100499.00;5060429;28;19920;-74
2022/04/21 06:09:59;;;;;;;;;;;;;;;19.31;47.96;100510.72;5077318;28;19921;-74
2022/04/21 06:12:27;;;;;;;;;;;;;;;19.32;48.08;100506.22;5076339;28;19939;-74
2022/04/21 06:14:54;;;;;;;;;;;;;;;19.32;48.15;100503.53;5076826;28;19927;-74
2022/04/21 06:17:21;;;;;;;;;;;;;;;19.32;48.04;100507.06;5074966;28;19920;-74
2022/04/21 06:19:49;;;;;;;;;;;;;;;19.31;48.08;100505.38;5075830;28;20272;-73
2022/04/21 06:22:16;;;;;;;;;;;;;;;19.32;48.21;100500.84;5074428;28;19920;-74
2022/04/21 06:24:43;;;;;;;;;;;;;;;19.31;48.31;100499.16;5075800;28;19927;-74
2022/04/21 06:27:10;;;;;;;;;;;;;;;19.31;48.37;100501.84;5076354;28;19920;-74
2022/04/21 06:29:37;;;;;;;;;;;;;;;19.31;48.19;100505.38;5074129;28;19932;-74
2022/04/21 06:32:04;;;;;;;;;;;;;;;19.31;48.22;100499.16;5076041;28;19927;-74
2022/04/21 06:34:32;;;;;;;;;;;;;;;19.31;48.43;100497.31;5074963;28;19924;-74
2022/04/21 06:37:00;;;;;;;;;;;;;;;19.30;48.28;100495.63;5074936;28;20347;-74
2022/04/21 06:39:27;;;;;;;;;;;;;;;19.31;48.37;100493.78;5075081;28;19927;-74
2022/04/21 06:41:54;;;;;;;;;;;;;;;19.30;48.26;100492.94;5074435;28;19927;-74
2022/04/21 06:49:53;;;;;;;;;;;;;;;19.30;48.37;100494.78;5074807;28;19921;-75
2022/04/21 06:52:20;;;;;;;;;;;;;;;19.30;48.31;100500.16;5079340;28;19920;-74
2022/04/21 06:54:47;;;;;;;;;;;;;;;19.31;48.42;100499.16;5094676;28;20344;-74
2022/04/21 06:57:15;;;;;;;;;;;;;;;19.31;48.28;100497.31;5092024;28;19924;-75
2022/04/21 06:59:42;;;;;;;;;;;;;;;19.32;48.44;100506.22;5095189;28;19920;-75
2022/04/21 07:02:09;;;;;;;;;;;;;;;19.33;48.36;100494.50;5093684;28;19924;-75
2022/04/21 07:04:37;;;;;;;;;;;;;;;19.34;48.49;100504.25;5094929;28;19919;-72
2022/04/21 07:07:04;;;;;;;;;;;;;;;19.34;48.61;100498.88;5094313;28;19920;-73
2022/04/21 07:09:32;;;;;;;;;;;;;;;19.35;48.53;100500.56;5094126;28;19970;-73
2022/04/21 07:11:59;;;;;;;;;;;;;;;19.34;48.65;100483.63;5094139;28;19924;-73
2022/04/21 07:14:26;;;;;;;;;;;;;;;19.35;48.64;100488.00;5094476;28;19920;-75
2022/04/21 07:16:58;;;;;;;;;;;;;;;19.35;48.66;100490.69;5094157;28;20268;-73
2022/04/21 07:19:25;;;;;;;;;;;;;;;19.36;48.74;100491.53;5076482;28;19927;-75
2022/04/21 07:21:52;;;;;;;;;;;;;;;19.36;49.04;100480.78;5093749;28;19927;-76
2022/04/21 07:24:19;;;;;;;;;;;;;;;19.37;48.46;100474.44;5093983;28;19924;-73
2022/04/21 07:26:46;;;;;;;;;;;;;;;19.38;48.79;100462.72;5093952;28;19927;-73
2022/04/21 07:29:13;;;;;;;;;;;;;;;19.37;48.65;100458.34;5094621;28;20331;-75
2022/04/21 07:31:41;;;;;;;;;;;;;;;19.37;48.68;100461.88;5092430;28;19920;-88
2022/04/21 07:34:09;;;;;;;;;;;;;;;19.38;48.97;100470.78;5093366;28;20290;-79
2022/04/21 07:36:37;;;;;;;;;;;;;;;19.39;49.11;100469.78;5094493;28;20291;-76
2022/04/21 07:39:05;;;;;;;;;;;;;;;19.39;48.94;100476.00;5094347;28;19927;-77
2022/04/21 07:41:32;;;;;;;;;;;;;;;19.40;49.01;100476.84;5092655;28;19920;-77
2022/04/21 07:44:00;;;;;;;;;;;;;;;19.39;48.78;100470.63;5093792;28;19931;-76
2022/04/21 07:46:27;;;;;;;;;;;;;;;19.39;48.92;100477.81;5097626;28;19927;-77
2022/04/21 07:51:40;;;;;;;;;;;;;;;19.37;49.07;100482.50;5094019;28;20355;-76
2022/04/21 07:54:07;;;;;;;;;;;;;;;19.37;49.07;100485.19;5094245;28;20383;-77
2022/04/21 07:56:35;;;;;;;;;;;;;;;19.36;49.18;100486.16;5095083;28;19927;-75
2022/04/21 07:59:02;;;;;;;;;;;;;;;19.35;49.14;100488.00;5094524;28;19920;-76
2022/04/21 08:01:29;;;;;;;;;;;;;;;19.34;49.45;100482.78;5093391;28;19924;-75
2022/04/21 08:04:02;;;;;;;;;;;;;;;19.35;49.44;100471.03;5092160;28;20247;-74
2022/04/21 08:06:29;;;;;;;;;;;;;;;19.34;49.33;100477.41;5075986;28;19920;-76
2022/04/21 08:08:56;;;;;;;;;;;;;;;19.36;49.43;100475.41;5093710;28;20284;-77
2022/04/21 08:11:23;;;;;;;;;;;;;;;19.37;49.74;100474.44;5093642;28;19920;-75
2022/04/21 08:13:50;;;;;;;;;;;;;;;19.37;49.85;100471.75;5093933;28;20405;-75
2022/04/21 08:16:18;;;;;;;;;;;;;;;19.36;49.81;100470.88;5093074;28;19920;-74
2022/04/21 08:18:52;;;;;;;;;;;;;;;19.36;49.86;100470.06;5091516;28;19920;-74
2022/04/21 08:23:28;;;;;;;5.97;2.97;;;;;;;19.35;49.66;100468.34;5086677;28;20391;-74
2022/04/21 08:34:34;;;;;;;3.60;2.67;;;;;;;19.35;50.19;100457.63;5070734;28;20056;-75
2022/04/21 08:37:02;;;;;;;4.82;2.70;;;;;;;19.33;50.27;100456.94;5070083;28;20064;-74
2022/04/21 08:39:29;;;;;;;6.50;2.53;;;;;;;19.33;50.21;100462.31;5070401;28;20045;-75
2022/04/21 08:42:08;;;;;;;4.05;2.58;;;;;;;19.31;50.47;100457.06;5069688;28;20488;-75
2022/04/21 08:44:39;;;;;;;4.03;2.40;;;;;;;19.32;50.55;100457.91;5069929;28;20056;-74
2022/04/21 08:47:10;;;;;;;3.92;2.50;;;;;;;19.32;50.26;100464.09;5070077;28;20056;-72
2022/04/21 08:49:39;;;;;;;5.07;2.42;;;;;;;19.34;50.33;100455.94;5070333;28;20373;-72
2022/04/21 08:52:07;;;;;;;4.43;1.95;;;;;;;19.34;50.18;100455.94;5070208;28;20045;-72
2022/04/21 08:54:35;;;;;;;2.90;2.00;;;;;;;19.35;50.09;100458.47;5069671;28;20045;-75
2022/04/21 08:57:05;;;;;;;4.90;1.83;;;;;;;19.36;50.22;100460.16;5068640;28;20049;-71
2022/04/21 08:59:32;;;;;;;2.92;1.70;;;;;;;19.37;50.06;100461.03;5068149;28;20052;-71
2022/04/21 09:02:00;;;;;;;7.07;2.03;;;;;;;19.38;50.16;100468.09;5070009;28;20056;-72
2022/04/21 09:04:32;;;;;;;3.50;2.47;;;;;;;19.39;50.21;100470.63;5069813;28;20041;-72
2022/04/21 09:07:20;;;;;;;5.03;2.88;;;;;;;19.38;50.52;100476.97;5069734;28;20056;-71
2022/04/21 09:10:07;;;;;;;4.00;2.70;;;;;;;19.39;50.59;100476.00;5069855;28;20044;-71
2022/04/21 09:12:41;;;;;;;3.78;2.83;;;;;;;19.39;50.51;100473.31;5069881;28;20047;-73
2022/04/21 09:15:14;;;;;;;5.05;3.45;;;;;;;19.40;50.23;100471.47;5069848;28;20044;-72
2022/04/21 09:17:41;;;;;;;;;;;;;;;19.41;50.38;100470.50;5069670;28;20053;-71
2022/04/21 09:20:10;;;;;;;4.68;2.35;;;;;;;19.42;49.95;100464.13;5069133;28;19924;-72
2022/04/21 09:22:52;;;;;;;2.92;2.00;;;;;;;19.41;50.12;100467.81;5068889;28;20049;-72
2022/04/21 09:25:25;;;;;;;3.92;2.22;;;;;;;19.42;49.88;100454.25;5069220;28;20456;-72
2022/04/21 09:27:53;;;;;;;5.05;2.55;;;;;;;19.42;50.20;100453.41;5068813;28;20492;-72
2022/04/21 09:30:21;;;;;;;4.72;2.20;;;;;;;19.42;50.23;100458.75;5069455;28;20055;-72
2022/04/21 09:32:57;;;;;;;4.53;2.72;;;;;;;19.41;50.37;100474.03;5067530;28;20036;-73
2022/04/21 09:35:34;;;;;;;4.50;2.13;;;;;;;19.41;50.45;100462.44;5056467;28;20045;-73
2022/04/21 09:38:03;;;;;;;4.13;2.10;;;;;;;19.41;50.51;100451.72;5055929;28;20634;-72
2022/04/21 09:40:32;;;;;;;3.45;2.03;;;;;;;19.41;50.23;100457.06;5054414;28;20055;-73
2022/04/21 09:43:03;;;;;;;4.50;2.40;;;;;;;19.41;50.31;100463.28;5056043;28;20049;-71
2022/04/21 09:48:31;;;;;;;3.45;2.22;;;;;;;19.41;50.64;100462.44;5056489;28;20055;-73
2022/04/21 09:51:10;;;;;;;4.18;2.33;;;;;;;19.42;50.71;100474.88;5055753;28;20072;-73
2022/04/21 09:53:53;;;;;;;4.10;2.10;;;;;;;19.41;50.50;100468.66;5056027;28;20045;-72
2022/04/21 09:56:39;;;;;;;3.53;1.85;;;;;;;19.42;50.24;100464.13;5056162;28;20048;-73
2022/04/21 09:59:12;;;;;;;3.10;2.22;;;;;;;19.42;50.37;100459.59;5056032;28;20377;-72
2022/04/21 10:01:42;;;;;;;3.25;2.53;;;;;;;19.42;50.56;100469.50;5055951;28;20052;-71
2022/04/21 10:04:12;;;;;;;3.10;2.10;;;;;;;19.43;50.54;100465.81;5054851;28;20041;-71
2022/04/21 10:06:40;;;;;;;4.47;1.98;;;;;;;19.44;50.31;100459.44;5055147;28;20049;-73
2022/04/21 10:09:09;;;;;;;4.35;2.17;;;;;;;19.43;50.27;100463.97;5055905;28;20041;-73
2022/04/21 10:11:41;;;;;;;6.30;2.38;;;;;;;19.44;50.53;100462.97;5055795;28;20396;-74
2022/04/21 10:14:13;;;;;;;4.82;3.30;;;;;;;19.30;51.70;100454.53;5054992;28;20051;-74
2022/04/21 10:16:45;;;;;;;4.32;3.20;;;;;;;19.16;52.11;100461.13;5055880;28;20064;-74
2022/04/21 10:19:16;;;;;;;3.95;3.40;;;;;;;19.06;52.10;100465.66;5055162;28;20409;-74
2022/04/21 10:21:51;;;;;;;5.47;4.05;;;;;;;18.96;52.36;100454.91;5054602;28;20068;-74
2022/04/21 10:24:27;;;;;;;6.65;4.63;;;;;;;18.87;52.62;100453.03;5055505;28;20052;-74
2022/04/21 10:26:56;;;;;;;4.78;4.35;;;;;;;18.80;52.76;100458.13;5054973;28;20060;-74
2022/04/21 10:29:27;;;;;;;6.47;5.57;;;;;;;18.75;52.77;100455.84;5054806;28;20052;-74
2022/04/21 10:32:03;;;;;;;6.20;5.60;;;;;;;18.69;52.96;100442.97;5054604;28;20057;-74
2022/04/21 10:34:45;;;;;;;7.25;5.88;;;;;;;18.63;53.53;100454.22;5055024;28;20045;-74
2022/04/21 10:37:24;;;;;;;6.80;5.22;;;;;;;18.59;53.06;100455.47;5053409;28;20053;-74
2022/04/21 10:40:14;;;;;;;5.07;4.57;;;;;;;18.58;53.37;100456.47;5054223;28;20489;-74
2022/04/21 10:42:58;;;;;;;5.03;4.53;;;;;;;18.56;53.37;100453.09;5054256;28;20045;-75
2022/04/21 10:45:33;;;;;;;4.90;4.40;;;;;;;18.53;53.59;100461.38;5051824;28;20416;-74
2022/04/21 10:48:08;;;;;;;6.35;4.07;;;;;;;18.49;53.90;100455.44;5054432;28;20045;-74
2022/04/21 10:50:37;;;;;;;6.10;5.03;;;;;;;18.45;53.92;100463.91;5054348;28;20044;-74
2022/04/21 10:58:39;;;;;;;9.38;4.95;;;;;;;18.33;54.12;100456.94;5053386;28;20049;-74
2022/04/21 11:01:07;;;;;;;6.78;5.03;;;;;;;18.33;54.15;100457.78;5054674;28;20045;-74
2022/04/21 11:03:38;;;;;;;7.68;4.25;;;;;;;18.35;54.06;100465.69;5054545;28;20041;-73
2022/04/21 11:06:15;;;;;;;5.80;4.22;;;;;;;18.42;53.43;100453.44;5052486;28;20056;-76
2022/04/21 11:08:43;;;;;;;3.83;3.45;;;;;;;18.50;53.03;100450.94;5053439;28;20052;-74
2022/04/21 11:11:13;;;;;;;4.07;2.97;;;;;;;18.56;52.77;100453.09;5053544;28;20060;-75
2022/04/21 11:14:02;;;;;;;4.93;3.33;;;;;;;18.63;52.56;100453.38;5053608;28;20044;-74
2022/04/21 11:16:57;;;;;;;4.95;3.15;;;;;;;18.68;52.34;100453.84;5053515;28;20045;-75
2022/04/21 11:19:40;;;;;;;4.25;3.20;;;;;;;18.72;52.37;100447.25;5052425;28;20057;-75
2022/04/21 11:22:13;;;;;;;5.38;3.40;;;;;;;18.77;52.21;100448.50;5049762;28;20425;-74
2022/04/21 11:24:59;;;;;;;4.40;2.83;;;;;;;18.80;52.00;100439.34;5048589;28;20049;-77
2022/04/21 11:27:27;;;;;;;4.32;2.88;;;;;;;18.82;52.06;100439.22;5053372;28;20053;-75
2022/04/21 11:30:01;;;;;;;4.82;3.03;;;;;;;18.84;52.15;100440.78;5043317;28;20041;-74
2022/04/21 11:32:29;;;;;;;4.30;2.80;;;;;;;18.87;52.32;100436.94;5015916;28;20061;-75
2022/04/21 11:35:10;;;;;;;6.25;3.00;;;;;;;18.89;52.39;100435.00;5033192;28;20053;-75
2022/04/21 11:37:58;;;;;;;3.67;2.78;;;;;;;18.92;52.41;100432.00;5035602;28;20045;-75
2022/04/21 11:40:34;;;;;;;4.30;2.53;;;;;;;18.92;52.49;100422.16;5053460;28;20044;-75
2022/04/21 11:43:20;;;;;;;3.88;3.15;;;;;;;18.93;52.49;100415.78;5053435;28;20037;-75
2022/04/21 11:46:02;;;;;;;3.60;2.70;;;;;;;18.94;52.72;100409.44;5049583;28;20476;-75
2022/04/21 11:48:36;;;;;;;4.60;3.00;;;;;;;18.96;52.95;100403.94;5052410;28;20052;-75
2022/04/21 11:51:05;;;;;;;4.82;2.60;;;;;;;18.96;52.98;100399.44;5053177;28;20056;-75
2022/04/21 11:53:36;;;;;;;4.45;3.20;;;;;;;18.98;52.94;100410.84;5053036;28;20045;-75
2022/04/21 11:56:05;;;;;;;3.53;2.95;;;;;;;18.98;53.00;100404.66;5051725;28;20061;-74
2022/04/21 11:58:43;;;;;;;3.58;2.97;;;;;;;18.99;53.08;100415.22;5052954;28;20044;-74
2022/04/21 12:06:58;;;;;;;3.90;3.00;;;;;;;19.00;53.30;100406.22;5052325;28;20502;-75
2022/04/21 12:09:28;;;;;;;3.53;2.60;;;;;;;19.01;53.01;100409.75;5052432;28;20056;-75
2022/04/21 12:11:58;;;;;;;3.30;2.70;;;;;;;19.01;52.78;100412.41;5054314;28;20045;-74
2022/04/21 12:14:27;;;;;;;3.80;2.47;;;;;;;19.02;53.00;100404.22;5053471;28;20037;-75
2022/04/21 12:17:01;;;;;;;3.88;2.58;;;;;;;19.02;52.90;100404.22;5053607;28;20052;-75
2022/04/21 12:19:33;;;;;;;3.58;2.30;;;;;;;19.02;52.67;100409.59;5054491;28;20045;-75
2022/04/21 12:22:16;;;;;;;5.40;2.70;;;;;;;19.02;52.82;100409.59;5052999;28;20057;-75
2022/04/21 12:24:45;;;;;;;3.70;2.80;;;;;;;19.04;52.65;100417.50;5053264;28;20041;-75
2022/04/21 12:27:20;;;;;;;5.47;2.50;;;;;;;19.03;52.70;100408.59;5052819;28;20068;-75
2022/04/21 12:29:58;;;;;;;3.55;2.40;;;;;;;19.03;52.51;100415.78;5042879;28;20060;-75
2022/04/21 12:32:29;;;;;;;4.97;2.67;;;;;;;19.03;52.60;100416.63;5033334;28;20053;-75
2022/04/21 12:34:58;;;;;;;4.10;2.78;;;;;;;19.04;52.88;100417.50;5032588;28;20045;-75
2022/04/21 12:37:28;;;;;;;3.35;2.42;;;;;;;19.03;52.58;100422.00;5031777;28;20072;-75
2022/04/21 12:39:57;;;;;;;3.40;2.40;;;;;;;19.05;52.64;100416.53;5032437;28;20401;-75
2022/04/21 12:42:44;;;;;;;5.93;2.90;;;;;;;19.04;52.47;100422.88;5034043;28;20056;-75
2022/04/21 12:45:11;;;;;;;3.53;2.53;;;;;;;19.04;52.28;100420.19;5033277;28;20038;-75
2022/04/21 12:47:48;;;;;;;7.00;2.42;;;;;;;19.03;52.20;100413.94;5032885;28;20520;-75
2022/04/21 12:50:19;;;;;;;5.50;2.55;;;;;;;19.04;52.34;100417.50;5033241;28;20508;-76
2022/04/21 12:52:51;;;;;;;3.30;2.45;;;;;;;19.03;52.49;100411.28;5032878;28;20049;-75
2022/04/21 12:55:28;;;;;;;3.33;2.42;;;;;;;19.05;52.15;100411.16;5033540;28;20041;-75
2022/04/21 12:58:10;;;;;;;3.85;2.80;;;;;;;19.05;52.13;100410.31;5033482;28;20049;-75
2022/04/21 13:00:43;;;;;;;3.92;2.75;;;;;;;19.03;52.12;100405.06;5032722;28;20049;-75
2022/04/21 13:03:13;;;;;;;4.93;2.90;;;;;;;19.04;52.21;100406.78;5034031;28;20045;-75
2022/04/21 13:05:50;;;;;;;3.30;2.50;;;;;;;19.03;52.07;100392.50;5035366;28;20512;-75
2022/04/21 13:08:19;;;;;;;3.28;2.90;;;;;;;19.03;52.02;100389.81;5035001;28;20054;-75
2022/04/21 13:10:47;;;;;;;3.47;2.60;;;;;;;19.03;51.98;100384.44;5037765;28;20394;-75
2022/04/21 13:13:15;;;;;;;4.22;2.55;;;;;;;19.03;51.98;100376.41;5035874;28;20042;-75
2022/04/21 13:15:43;;;;;;;3.38;3.08;;;;;;;19.03;52.04;100387.13;5036412;28;20049;-75
2022/04/21 13:18:12;;;;;;;3.40;2.72;;;;;;;19.03;51.87;100384.44;5037443;28;20404;-74
2022/04/21 13:23:26;;;;;;;3.53;3.13;;;;;;;19.03;52.15;100378.22;5035823;28;20053;-75
2022/04/21 13:25:53;;;;;;;4.72;2.58;;;;;;;19.03;51.94;100379.06;5034742;28;20046;-75